Arsenal, Arkansas
Current Conditions -  °F | °C
As of 12:53 PM on Thursday 23 Oct 2014 (Local Time) from KPBF Reporting Station
Clear Clear  
Wind Chill: 59°   Ceiling: Unl
Heat Index: 59°   Visibility: 10mi
Dew Point: 47°   Wind: 0mph
Humidity: 64%   Direction: NA
Pressure: 30.19"   Gusts: NA
Location:  34.193°N, 91.9403°W
Report Text: KPBF 231753Z AUTO 00000KT 10SM CLR 15/08 A3019 RMK AO2 SLP221 T01500083 10150 20083 58009
Loading
Personal Weather Stations






























Interactive Weather Map
Tropical Storm Tracking
New forecast layout! Learn more

10-Day Weather Forecast

Advertisements
Track Severe Weather on mobile